LKNA

Náměšť Air Base Airport

Náměšť, Czech Republic
METAR LKNA 250800Z 21010KT CAVOK 19/10 Q1013 NOSIG RMK BLU BLU
Observed Flight Rules
Apr-25 @ 08:00 UTC (29 minutes ago) Visual Flight Rules
Wind Visibility Clouds
210° at 10 knots 10,000+ meters
  • Clear skies
Temperatures Readings
Current 19°C / 66°F
Dewpoint 10°C / 50°F
Humidity 56%
Altimeter 29.91" Hg
Pressure 1013 hPa
Elevation 472
METAR LKNA 250800Z 21010KT CAVOK 19/10 Q1013 NOSIG RMK BLU BLU
Observed Flight Rules
Apr-25 @ 08:00 UTC
(29 minutes ago)
VFR
Wind Visibility
210° at 10 knots 10,000+ meters
Clouds
  • Clear skies
Temperature Dewpoint
19°C / 66°F 10°C / 50°F
Humidity Altimeter Pressure
56% 29.91" Hg 1013 hPa